Time;durP1;ratioP1;P1;durP2;ratioP2;P2;SDS_P1;SDS_P2;PMS_P1;PMS_P2;Temp;Humidity;BMP_temperature;BMP_pressure;BME280_temperature;BME280_humidity;BME280_pressure;Samples;Min_cycle;Max_cycle;Signal;HPM_P1;HPM_P2
2022/03/16 00:00:34;;;;;;;37.10;17.93;;;;;;;;;;5076106;28;20914;-54
2022/03/16 00:03:00;;;;;;;36.97;18.60;;;;;;;;;;5075927;28;20884;-54
2022/03/16 00:05:28;;;;;;;32.13;18.00;;;;;;;;;;5094036;28;20449;-51
2022/03/16 00:07:54;;;;;;;31.57;18.57;;;;;;;;;;5094096;28;20444;-53
2022/03/16 00:10:20;;;;;;;33.10;17.40;;;;;;;;;;5094013;28;20432;-53
2022/03/16 00:12:46;;;;;;;28.80;17.00;;;;;;;;;;5093943;28;20447;-53
2022/03/16 00:15:12;;;;;;;33.00;17.67;;;;;;;;;;5093751;28;20408;-54
2022/03/16 00:17:39;;;;;;;31.47;17.00;;;;;;;;;;5093793;28;20402;-51
2022/03/16 00:20:05;;;;;;;33.23;17.50;;;;;;;;;;5075487;28;20418;-54
2022/03/16 00:22:31;;;;;;;32.10;17.23;;;;;;;;;;5093699;28;20407;-54
2022/03/16 00:24:57;;;;;;;28.80;17.50;;;;;;;;;;5093625;28;20754;-52
2022/03/16 00:27:23;;;;;;;28.33;16.53;;;;;;;;;;5093468;28;20477;-53
2022/03/16 00:29:50;;;;;;;38.43;18.10;;;;;;;;;;5075306;28;20406;-53
2022/03/16 00:32:16;;;;;;;32.47;18.13;;;;;;;;;;5075237;28;20452;-53
2022/03/16 00:34:44;;;;;;;37.83;20.00;;;;;;;;;;5093499;28;20406;-54
2022/03/16 00:37:11;;;;;;;33.57;19.23;;;;;;;;;;5075322;28;20425;-54
2022/03/16 00:39:36;;;;;;;39.07;20.37;;;;;;;;;;5075242;28;20408;-54
2022/03/16 00:42:04;;;;;;;37.53;21.10;;;;;;;;;;5093367;28;20410;-53
2022/03/16 00:44:34;;;;;;;37.10;20.93;;;;;;;;;;5093182;28;20504;-53
2022/03/16 00:47:00;;;;;;;44.17;20.70;;;;;;;;;;5093209;28;20464;-52
2022/03/16 00:49:26;;;;;;;34.77;20.07;;;;;;;;;;5074925;28;20410;-55
2022/03/16 00:51:52;;;;;;;38.50;21.10;;;;;;;;;;5093236;28;20406;-54
2022/03/16 00:54:18;;;;;;;45.30;21.83;;;;;;;;;;5093208;28;20759;-53
2022/03/16 00:56:44;;;;;;;37.23;20.50;;;;;;;;;;5092671;28;20410;-54
2022/03/16 00:59:10;;;;;;;35.87;19.17;;;;;;;;;;5093154;28;20409;-53
2022/03/16 01:01:37;;;;;;;35.73;20.80;;;;;;;;;;5093127;28;20435;-53
2022/03/16 01:04:03;;;;;;;35.93;20.27;;;;;;;;;;5092966;28;20402;-54
2022/03/16 01:06:29;;;;;;;34.87;19.83;;;;;;;;;;5092848;28;20999;-53
2022/03/16 01:08:55;;;;;;;38.90;20.40;;;;;;;;;;5092866;28;20437;-53
2022/03/16 01:11:21;;;;;;;35.20;19.10;;;;;;;;;;5092825;28;20509;-52
2022/03/16 01:13:47;;;;;;;35.60;20.27;;;;;;;;;;5092747;28;20949;-53
2022/03/16 01:16:13;;;;;;;41.70;19.90;;;;;;;;;;5092728;28;20418;-55
2022/03/16 01:18:39;;;;;;;41.20;19.27;;;;;;;;;;5092785;28;21021;-51
2022/03/16 01:21:06;;;;;;;39.47;20.40;;;;;;;;;;5074514;28;20414;-54
2022/03/16 01:23:34;;;;;;;36.43;20.10;;;;;;;;;;5092664;28;20437;-54
2022/03/16 01:26:00;;;;;;;34.70;19.67;;;;;;;;;;5074167;28;20454;-53
2022/03/16 01:28:26;;;;;;;32.27;18.27;;;;;;;;;;5092510;28;20421;-54
2022/03/16 01:30:52;;;;;;;35.50;19.40;;;;;;;;;;5092367;28;20428;-54
2022/03/16 01:33:18;;;;;;;34.57;19.60;;;;;;;;;;5092349;28;20428;-54
2022/03/16 01:35:44;;;;;;;35.50;19.53;;;;;;;;;;5074040;28;20410;-53
2022/03/16 01:38:10;;;;;;;39.67;20.40;;;;;;;;;;5092583;28;20551;-57
2022/03/16 01:40:36;;;;;;;35.50;19.20;;;;;;;;;;5074250;28;20798;-53
2022/03/16 01:43:02;;;;;;;32.83;18.90;;;;;;;;;;5092180;28;20449;-55
2022/03/16 01:45:28;;;;;;;38.20;19.93;;;;;;;;;;5074141;28;20420;-55
2022/03/16 01:47:54;;;;;;;39.50;18.63;;;;;;;;;;5092073;28;20469;-57
2022/03/16 01:50:20;;;;;;;36.97;19.13;;;;;;;;;;5073981;28;20531;-52
2022/03/16 01:52:49;;;;;;;40.77;18.73;;;;;;;;;;5092228;28;20410;-53
2022/03/16 01:55:15;;;;;;;39.70;20.80;;;;;;;;;;5092085;28;20432;-56
2022/03/16 01:57:42;;;;;;;36.90;21.10;;;;;;;;;;5092180;28;20946;-54
2022/03/16 02:00:08;;;;;;;49.83;21.03;;;;;;;;;;5092148;28;20435;-54
2022/03/16 02:02:34;;;;;;;38.07;21.03;;;;;;;;;;5073731;28;20421;-55
2022/03/16 02:05:00;;;;;;;49.63;20.77;;;;;;;;;;5092110;28;20492;-59
2022/03/16 02:07:26;;;;;;;40.90;21.07;;;;;;;;;;5092083;28;20603;-55
2022/03/16 02:09:53;;;;;;;37.00;20.60;;;;;;;;;;5096330;28;20409;-56
2022/03/16 02:12:19;;;;;;;39.57;19.80;;;;;;;;;;5096276;28;20413;-54
2022/03/16 02:14:45;;;;;;;40.90;21.33;;;;;;;;;;5096272;28;20405;-54
2022/03/16 02:17:12;;;;;;;44.80;21.07;;;;;;;;;;5096244;28;20413;-54
2022/03/16 02:19:38;;;;;;;37.73;19.80;;;;;;;;;;5096119;28;20937;-53
2022/03/16 02:22:05;;;;;;;42.27;21.97;;;;;;;;;;5077783;28;20418;-55
2022/03/16 02:24:31;;;;;;;45.03;21.10;;;;;;;;;;5096076;28;20406;-57
2022/03/16 02:26:57;;;;;;;38.97;20.70;;;;;;;;;;5096003;28;20461;-53
2022/03/16 02:29:23;;;;;;;42.27;21.30;;;;;;;;;;5095801;28;20902;-54
2022/03/16 02:31:49;;;;;;;38.83;20.67;;;;;;;;;;5095895;28;20441;-53
2022/03/16 02:34:15;;;;;;;40.53;22.00;;;;;;;;;;5096046;28;20418;-53
2022/03/16 02:36:41;;;;;;;41.83;20.93;;;;;;;;;;5095708;28;20397;-55
2022/03/16 02:39:07;;;;;;;44.70;21.60;;;;;;;;;;5095921;28;20478;-54
2022/03/16 02:41:34;;;;;;;45.63;22.40;;;;;;;;;;5095719;28;20397;-53
2022/03/16 02:44:00;;;;;;;44.27;20.40;;;;;;;;;;5095692;28;20405;-56
2022/03/16 02:46:26;;;;;;;50.70;22.40;;;;;;;;;;5095457;28;21000;-54
2022/03/16 02:48:55;;;;;;;39.30;19.60;;;;;;;;;;5095525;28;20906;-52
2022/03/16 02:51:21;;;;;;;38.80;20.20;;;;;;;;;;5095592;28;20797;-53
2022/03/16 02:53:47;;;;;;;40.43;19.00;;;;;;;;;;5095490;28;20973;-54
2022/03/16 02:56:14;;;;;;;41.37;21.07;;;;;;;;;;5095480;28;20417;-52
2022/03/16 02:58:40;;;;;;;38.47;19.50;;;;;;;;;;5095717;28;20441;-52
2022/03/16 03:01:06;;;;;;;42.07;20.00;;;;;;;;;;5095384;28;20454;-56
2022/03/16 03:03:32;;;;;;;40.93;20.50;;;;;;;;;;5095254;28;20412;-54
2022/03/16 03:06:01;;;;;;;36.07;20.10;;;;;;;;;;5076912;28;20884;-51
2022/03/16 03:08:27;;;;;;;40.00;20.47;;;;;;;;;;5076970;28;20429;-54
2022/03/16 03:10:53;;;;;;;39.70;20.23;;;;;;;;;;5094979;28;20931;-55
2022/03/16 03:13:19;;;;;;;38.77;19.50;;;;;;;;;;5095036;28;20418;-53
2022/03/16 03:15:45;;;;;;;44.67;20.10;;;;;;;;;;5076849;28;20420;-54
2022/03/16 03:18:11;;;;;;;38.13;17.83;;;;;;;;;;5094985;28;20461;-54
2022/03/16 03:20:38;;;;;;;39.77;19.10;;;;;;;;;;5094804;28;20456;-53
2022/03/16 03:23:04;;;;;;;33.53;18.27;;;;;;;;;;5094836;28;20414;-53
2022/03/16 03:25:30;;;;;;;36.60;18.73;;;;;;;;;;5095036;28;20406;-53
2022/03/16 03:27:56;;;;;;;40.93;18.90;;;;;;;;;;5076615;28;20477;-53
2022/03/16 03:30:22;;;;;;;41.47;18.87;;;;;;;;;;5094697;28;20902;-53
2022/03/16 03:32:48;;;;;;;35.77;17.60;;;;;;;;;;5094654;28;20437;-53
2022/03/16 03:35:15;;;;;;;37.90;18.10;;;;;;;;;;5094644;28;20600;-52
2022/03/16 03:37:41;;;;;;;41.73;17.93;;;;;;;;;;5094824;28;20398;-53
2022/03/16 03:40:07;;;;;;;41.17;18.60;;;;;;;;;;5076694;28;20808;-56
2022/03/16 03:42:33;;;;;;;43.63;20.00;;;;;;;;;;5076203;28;20402;-54
2022/03/16 03:44:59;;;;;;;36.20;18.53;;;;;;;;;;5094487;28;20784;-56
2022/03/16 03:47:25;;;;;;;35.27;18.67;;;;;;;;;;5094297;28;20466;-54
2022/03/16 03:49:51;;;;;;;38.47;18.20;;;;;;;;;;5094382;28;20432;-54
2022/03/16 03:52:17;;;;;;;38.07;19.13;;;;;;;;;;5094234;28;20405;-55
2022/03/16 03:54:43;;;;;;;33.70;19.47;;;;;;;;;;5094342;28;20416;-54
2022/03/16 03:57:09;;;;;;;40.60;19.77;;;;;;;;;;5094460;28;20410;-55
2022/03/16 03:59:35;;;;;;;38.30;18.23;;;;;;;;;;5075905;28;20413;-53
2022/03/16 04:02:01;;;;;;;41.93;19.07;;;;;;;;;;5094127;28;20406;-56
2022/03/16 04:04:27;;;;;;;37.90;19.30;;;;;;;;;;5094014;28;20434;-56
2022/03/16 04:06:53;;;;;;;43.83;20.60;;;;;;;;;;5093843;28;20969;-58
2022/03/16 04:09:19;;;;;;;37.83;20.20;;;;;;;;;;5093984;28;20501;-54
2022/03/16 04:11:45;;;;;;;37.03;20.40;;;;;;;;;;5093818;28;20410;-55
2022/03/16 04:14:12;;;;;;;38.17;20.20;;;;;;;;;;5093871;28;20402;-52
2022/03/16 04:16:38;;;;;;;46.47;19.97;;;;;;;;;;5093867;28;20495;-55
2022/03/16 04:19:04;;;;;;;39.90;19.47;;;;;;;;;;5093582;28;20483;-53
2022/03/16 04:21:30;;;;;;;38.63;18.93;;;;;;;;;;5075679;28;20421;-53
2022/03/16 04:23:56;;;;;;;39.93;19.10;;;;;;;;;;5093674;28;20431;-56
2022/03/16 04:26:22;;;;;;;37.47;19.90;;;;;;;;;;5093257;28;20540;-57
2022/03/16 04:28:49;;;;;;;44.07;20.53;;;;;;;;;;5093517;28;20409;-53
2022/03/16 04:31:15;;;;;;;39.57;20.43;;;;;;;;;;5092719;28;20398;-55
2022/03/16 04:33:41;;;;;;;43.57;20.67;;;;;;;;;;5075410;28;20516;-55
2022/03/16 04:36:07;;;;;;;40.00;20.33;;;;;;;;;;5075250;28;20417;-53
2022/03/16 04:38:33;;;;;;;52.70;21.70;;;;;;;;;;5093419;28;20406;-54
2022/03/16 04:41:02;;;;;;;38.20;21.13;;;;;;;;;;5093190;28;20432;-54
2022/03/16 04:43:28;;;;;;;48.60;21.67;;;;;;;;;;5093160;28;20418;-56
2022/03/16 04:45:54;;;;;;;43.40;21.60;;;;;;;;;;5093168;28;20410;-56
2022/03/16 04:48:20;;;;;;;44.33;21.30;;;;;;;;;;5093302;28;20774;-53
2022/03/16 04:50:46;;;;;;;44.93;22.13;;;;;;;;;;5074974;28;20495;-55
2022/03/16 04:53:12;;;;;;;38.10;19.83;;;;;;;;;;5093075;28;20409;-57
2022/03/16 04:55:38;;;;;;;45.57;20.90;;;;;;;;;;5093206;28;20483;-54
2022/03/16 04:58:05;;;;;;;51.93;20.80;;;;;;;;;;5092999;28;20414;-52
2022/03/16 05:00:31;;;;;;;49.33;20.20;;;;;;;;;;5093136;28;20402;-52
2022/03/16 05:02:57;;;;;;;41.37;19.97;;;;;;;;;;5092986;28;20505;-54
2022/03/16 05:05:26;;;;;;;44.50;20.80;;;;;;;;;;5092751;28;20437;-53
2022/03/16 05:07:52;;;;;;;43.73;20.87;;;;;;;;;;5092932;28;20465;-54
2022/03/16 05:10:18;;;;;;;49.73;21.27;;;;;;;;;;5074570;28;20742;-54
2022/03/16 05:12:45;;;;;;;39.83;19.90;;;;;;;;;;5092801;28;20410;-54
2022/03/16 05:15:15;;;;;;;46.20;20.97;;;;;;;;;;5092848;28;20405;-53
2022/03/16 05:17:41;;;;;;;39.93;20.03;;;;;;;;;;5092757;28;20413;-55
2022/03/16 05:20:08;;;;;;;48.50;20.20;;;;;;;;;;5092886;28;20508;-55
2022/03/16 05:23:03;;;;;;;42.47;20.67;;;;;;;;;;5092673;28;20414;-53
2022/03/16 05:25:32;;;;;;;39.47;19.80;;;;;;;;;;5075630;28;20422;-56
2022/03/16 05:28:01;;;;;;;44.20;21.37;;;;;;;;;;5092373;28;20501;-54
2022/03/16 05:30:27;;;;;;;38.57;20.07;;;;;;;;;;5092281;28;20485;-55
2022/03/16 05:32:54;;;;;;;42.50;20.60;;;;;;;;;;5092477;28;20410;-54
2022/03/16 05:35:21;;;;;;;32.80;18.47;;;;;;;;;;5092432;28;20429;-53
2022/03/16 05:37:47;;;;;;;39.93;20.27;;;;;;;;;;5074235;28;20413;-54
2022/03/16 05:40:13;;;;;;;43.50;20.03;;;;;;;;;;5092353;28;20409;-54
2022/03/16 05:42:42;;;;;;;39.43;20.27;;;;;;;;;;5092450;28;20449;-54
2022/03/16 05:45:08;;;;;;;45.37;20.37;;;;;;;;;;5092473;28;20417;-55
2022/03/16 05:47:35;;;;;;;42.27;20.70;;;;;;;;;;5073916;28;20535;-56
2022/03/16 05:50:04;;;;;;;42.47;19.67;;;;;;;;;;5092178;28;20431;-52
2022/03/16 05:52:31;;;;;;;41.03;20.03;;;;;;;;;;5073810;28;20418;-53
2022/03/16 05:54:58;;;;;;;36.37;19.10;;;;;;;;;;5092183;28;20409;-54
2022/03/16 05:57:24;;;;;;;46.63;21.63;;;;;;;;;;5092167;28;20906;-54
2022/03/16 05:59:51;;;;;;;42.00;18.90;;;;;;;;;;5092059;28;20431;-55
2022/03/16 06:02:17;;;;;;;40.03;19.90;;;;;;;;;;5092151;28;20414;-52
2022/03/16 06:04:46;;;;;;;52.03;22.77;;;;;;;;;;5091984;28;20493;-55
2022/03/16 06:07:12;;;;;;;39.07;18.87;;;;;;;;;;5091855;28;20461;-53
2022/03/16 06:09:38;;;;;;;40.27;20.73;;;;;;;;;;5092199;28;20435;-54
2022/03/16 06:12:05;;;;;;;39.00;20.53;;;;;;;;;;5092022;28;20410;-53
2022/03/16 06:14:31;;;;;;;35.30;18.50;;;;;;;;;;5073605;28;20805;-53
2022/03/16 06:16:57;;;;;;;37.40;20.43;;;;;;;;;;5091802;28;20459;-55
2022/03/16 06:19:24;;;;;;;38.20;20.27;;;;;;;;;;5091815;28;20985;-54
2022/03/16 06:21:50;;;;;;;38.70;19.47;;;;;;;;;;5091798;28;20506;-55
2022/03/16 06:24:17;;;;;;;35.93;19.40;;;;;;;;;;5091468;28;20406;-53
2022/03/16 06:26:44;;;;;;;33.57;18.83;;;;;;;;;;5091564;28;20465;-55
2022/03/16 06:29:10;;;;;;;31.77;18.87;;;;;;;;;;5091946;28;20535;-54
2022/03/16 06:31:36;;;;;;;35.67;19.30;;;;;;;;;;5091883;28;20405;-56
2022/03/16 06:34:05;;;;;;;36.00;19.00;;;;;;;;;;5091771;28;20421;-56
2022/03/16 06:36:31;;;;;;;34.33;17.97;;;;;;;;;;5091641;28;20413;-53
2022/03/16 06:38:57;;;;;;;37.67;18.87;;;;;;;;;;5091686;28;20410;-55
2022/03/16 06:41:26;;;;;;;39.20;19.40;;;;;;;;;;5091285;28;20459;-54
2022/03/16 06:43:52;;;;;;;28.80;17.43;;;;;;;;;;5091626;28;20779;-56
2022/03/16 06:46:18;;;;;;;40.03;19.67;;;;;;;;;;5073485;28;20468;-55
2022/03/16 06:48:45;;;;;;;29.93;18.13;;;;;;;;;;5091579;28;20944;-57
2022/03/16 06:51:11;;;;;;;33.53;18.40;;;;;;;;;;5091930;28;20492;-57
2022/03/16 06:53:37;;;;;;;29.87;18.10;;;;;;;;;;5092010;28;20398;-56
2022/03/16 06:56:03;;;;;;;31.33;18.30;;;;;;;;;;5095276;28;20406;-55
2022/03/16 06:58:29;;;;;;;32.00;17.73;;;;;;;;;;5095193;28;20454;-56
2022/03/16 07:00:55;;;;;;;38.43;19.20;;;;;;;;;;5095175;28;20414;-54
2022/03/16 07:03:24;;;;;;;30.40;17.37;;;;;;;;;;5095153;28;20444;-57
2022/03/16 07:05:50;;;;;;;40.17;19.10;;;;;;;;;;5094889;28;20398;-54
2022/03/16 07:08:16;;;;;;;30.93;18.23;;;;;;;;;;5094869;28;20425;-54
2022/03/16 07:10:43;;;;;;;28.60;17.73;;;;;;;;;;5094670;28;20974;-56
2022/03/16 07:13:11;;;;;;;35.17;18.90;;;;;;;;;;5095011;28;20752;-58
2022/03/16 07:15:37;;;;;;;27.97;17.87;;;;;;;;;;5094970;28;20797;-56
2022/03/16 07:18:03;;;;;;;31.90;17.93;;;;;;;;;;5094511;28;20454;-56
2022/03/16 07:20:30;;;;;;;36.13;20.43;;;;;;;;;;5094867;28;20426;-54
2022/03/16 07:23:03;;;;;;;35.63;18.37;;;;;;;;;;5094631;28;20417;-53
2022/03/16 07:25:29;;;;;;;30.70;17.87;;;;;;;;;;5094906;28;20492;-56
2022/03/16 07:27:55;;;;;;;34.10;17.83;;;;;;;;;;5094381;28;20503;-57
2022/03/16 07:30:21;;;;;;;33.50;18.70;;;;;;;;;;5094463;28;20413;-55
2022/03/16 07:32:47;;;;;;;28.43;17.37;;;;;;;;;;5094666;28;20898;-56
2022/03/16 07:35:13;;;;;;;31.80;17.97;;;;;;;;;;5094660;28;20410;-56
2022/03/16 07:37:40;;;;;;;33.00;19.20;;;;;;;;;;5094692;28;20970;-57
2022/03/16 07:40:06;;;;;;;28.30;17.00;;;;;;;;;;5094331;28;20512;-53
2022/03/16 07:42:32;;;;;;;27.67;17.50;;;;;;;;;;5076360;28;20409;-56
2022/03/16 07:44:58;;;;;;;32.77;18.50;;;;;;;;;;5094322;28;20402;-55
2022/03/16 07:47:28;;;;;;;27.97;17.13;;;;;;;;;;5094010;28;20801;-55
2022/03/16 07:49:56;;;;;;;30.80;17.37;;;;;;;;;;5094124;28;20492;-55
2022/03/16 07:52:22;;;;;;;63.27;35.37;;;;;;;;;;5094014;28;20906;-54
2022/03/16 07:54:48;;;;;;;76.20;39.67;;;;;;;;;;5094511;28;20406;-55
2022/03/16 07:57:16;;;;;;;28.73;17.40;;;;;;;;;;5094600;28;20415;-56
2022/03/16 07:59:42;;;;;;;32.83;18.90;;;;;;;;;;5094460;28;20438;-55
2022/03/16 08:02:08;;;;;;;31.67;17.80;;;;;;;;;;5094714;28;20422;-56
2022/03/16 08:04:34;;;;;;;31.03;18.77;;;;;;;;;;5076162;28;20397;-55
2022/03/16 08:07:00;;;;;;;26.60;17.20;;;;;;;;;;5093252;28;20786;-56
2022/03/16 08:09:29;;;;;;;44.23;23.60;;;;;;;;;;5094274;28;20412;-56
2022/03/16 08:11:55;;;;;;;26.10;17.10;;;;;;;;;;5093334;28;20414;-55
2022/03/16 08:14:21;;;;;;;29.63;17.27;;;;;;;;;;5093281;28;20492;-57
2022/03/16 08:16:50;;;;;;;44.10;27.63;;;;;;;;;;5075892;28;20414;-55
2022/03/16 08:19:16;;;;;;;31.87;17.90;;;;;;;;;;5093873;28;20485;-54
2022/03/16 08:21:42;;;;;;;30.40;16.47;;;;;;;;;;5094092;28;20460;-56
2022/03/16 08:24:08;;;;;;;34.10;17.73;;;;;;;;;;5075855;28;20425;-55
2022/03/16 08:26:34;;;;;;;28.87;16.50;;;;;;;;;;5092723;28;20501;-54
2022/03/16 08:29:03;;;;;;;31.43;17.30;;;;;;;;;;5104019;28;20455;-55
2022/03/16 08:31:30;;;;;;;28.60;15.93;;;;;;;;;;5113920;28;20808;-55
2022/03/16 08:33:56;;;;;;;28.80;16.60;;;;;;;;;;5113904;28;20400;-55
2022/03/16 08:36:23;;;;;;;27.90;17.07;;;;;;;;;;5113489;28;20956;-55
2022/03/16 08:38:49;;;;;;;28.97;16.70;;;;;;;;;;5113613;28;20405;-54
2022/03/16 08:41:18;;;;;;;25.47;16.00;;;;;;;;;;5113435;28;20643;-55
2022/03/16 08:43:44;;;;;;;35.97;16.93;;;;;;;;;;5113306;28;20440;-57
2022/03/16 08:46:10;;;;;;;27.07;17.13;;;;;;;;;;5094707;28;20455;-57
2022/03/16 08:48:37;;;;;;;29.33;17.17;;;;;;;;;;5106680;28;20413;-57
2022/03/16 08:51:06;;;;;;;29.90;17.43;;;;;;;;;;5095240;28;20489;-57
2022/03/16 08:53:32;;;;;;;23.03;16.10;;;;;;;;;;5113207;28;20409;-56
2022/03/16 08:56:00;;;;;;;23.70;16.93;;;;;;;;;;5104828;28;20406;-58
2022/03/16 08:58:26;;;;;;;25.40;16.47;;;;;;;;;;5092537;28;20410;-56
2022/03/16 09:00:52;;;;;;;26.40;16.40;;;;;;;;;;5094397;28;20402;-55
2022/03/16 09:03:19;;;;;;;25.80;16.27;;;;;;;;;;5112466;28;20462;-55
2022/03/16 09:05:48;;;;;;;24.30;16.80;;;;;;;;;;5093994;28;20402;-53
2022/03/16 09:08:14;;;;;;;23.57;15.73;;;;;;;;;;5092294;28;21072;-54
2022/03/16 09:10:42;;;;;;;24.97;16.17;;;;;;;;;;5092228;28;20413;-56
2022/03/16 09:13:08;;;;;;;23.60;15.40;;;;;;;;;;5074159;28;20422;-56
2022/03/16 09:15:34;;;;;;;24.43;16.00;;;;;;;;;;5073692;28;20782;-57
2022/03/16 09:18:01;;;;;;;23.83;15.37;;;;;;;;;;5091634;28;20610;-55
2022/03/16 09:20:27;;;;;;;25.70;16.00;;;;;;;;;;5092073;28;20467;-57
2022/03/16 09:22:53;;;;;;;23.60;15.80;;;;;;;;;;5111130;28;20911;-56
2022/03/16 09:25:22;;;;;;;26.30;15.10;;;;;;;;;;5112386;28;20405;-57
2022/03/16 09:27:48;;;;;;;30.53;16.90;;;;;;;;;;5112442;28;20469;-55
2022/03/16 09:30:14;;;;;;;23.00;15.20;;;;;;;;;;5112168;28;20633;-55
2022/03/16 09:32:40;;;;;;;22.37;14.43;;;;;;;;;;5112233;28;20405;-55
2022/03/16 09:35:07;;;;;;;25.73;16.30;;;;;;;;;;5112129;28;20508;-55
2022/03/16 09:37:33;;;;;;;23.73;15.10;;;;;;;;;;5112060;28;20412;-55
2022/03/16 09:39:59;;;;;;;22.90;15.17;;;;;;;;;;5094075;28;20409;-55
2022/03/16 09:42:25;;;;;;;19.57;14.23;;;;;;;;;;5112087;28;20416;-53
2022/03/16 09:44:53;;;;;;;25.93;15.40;;;;;;;;;;5111952;28;20435;-58
2022/03/16 09:47:22;;;;;;;23.40;15.00;;;;;;;;;;5093685;28;20469;-56
2022/03/16 09:49:48;;;;;;;25.83;15.90;;;;;;;;;;5112084;28;20416;-56
2022/03/16 09:52:15;;;;;;;24.37;15.00;;;;;;;;;;5111653;28;20423;-56
2022/03/16 09:54:41;;;;;;;21.43;14.57;;;;;;;;;;5093414;28;20885;-57
2022/03/16 09:57:07;;;;;;;21.43;14.20;;;;;;;;;;5111752;28;20428;-54
2022/03/16 09:59:33;;;;;;;18.63;13.63;;;;;;;;;;5111684;28;20409;-56
2022/03/16 10:02:04;;;;;;;18.57;12.03;;;;;;;;;;5111851;28;20864;-56
2022/03/16 10:04:31;;;;;;;17.80;12.20;;;;;;;;;;5111599;28;20405;-56
2022/03/16 10:06:59;;;;;;;17.13;12.00;;;;;;;;;;5093362;28;20460;-59
2022/03/16 10:15:03;;;;;;;23.10;12.00;;;;;;;;;;5112202;28;20447;-56
2022/03/16 10:17:45;;;;;;;18.23;12.80;;;;;;;;;;5111656;28;20433;-56
2022/03/16 10:20:11;;;;;;;20.63;12.33;;;;;;;;;;5111890;28;20772;-58
2022/03/16 10:22:41;;;;;;;21.13;13.43;;;;;;;;;;5112046;28;20405;-56
2022/03/16 10:25:07;;;;;;;20.57;14.17;;;;;;;;;;5111514;28;20405;-54
2022/03/16 10:27:37;;;;;;;19.03;13.30;;;;;;;;;;5111254;28;21019;-56
2022/03/16 10:30:05;;;;;;;18.77;12.90;;;;;;;;;;5096082;28;20461;-56
2022/03/16 10:32:32;;;;;;;18.30;13.00;;;;;;;;;;5115745;28;20465;-57
2022/03/16 10:35:06;;;;;;;20.70;11.77;;;;;;;;;;5115616;28;20401;-55
2022/03/16 10:37:35;;;;;;;19.17;12.73;;;;;;;;;;5115477;28;20458;-57
2022/03/16 10:40:05;;;;;;;18.33;12.10;;;;;;;;;;5115082;28;20493;-55
2022/03/16 10:48:13;;;;;;;18.23;13.13;;;;;;;;;;5115322;28;20490;-56
2022/03/16 10:50:40;;;;;;;18.87;13.43;;;;;;;;;;5115328;28;20413;-54
2022/03/16 10:53:06;;;;;;;15.43;13.10;;;;;;;;;;5115166;28;20856;-54
2022/03/16 10:55:32;;;;;;;14.90;12.37;;;;;;;;;;5114988;28;20400;-54
2022/03/16 10:57:58;;;;;;;16.23;13.03;;;;;;;;;;5115046;28;20450;-55
2022/03/16 11:00:27;;;;;;;16.83;13.43;;;;;;;;;;5115371;28;20432;-54
2022/03/16 11:02:54;;;;;;;21.43;13.07;;;;;;;;;;5114927;28;20400;-55
2022/03/16 11:05:20;;;;;;;21.27;13.47;;;;;;;;;;5114906;28;20405;-56
2022/03/16 11:07:48;;;;;;;16.93;12.80;;;;;;;;;;5114696;28;20456;-57
2022/03/16 11:10:15;;;;;;;17.53;11.77;;;;;;;;;;5114869;28;20401;-58
2022/03/16 11:15:25;;;;;;;13.37;11.37;;;;;;;;;;5114659;28;20420;-58
2022/03/16 11:17:51;;;;;;;15.70;11.43;;;;;;;;;;5096292;28;20409;-57
2022/03/16 11:20:19;;;;;;;17.23;11.93;;;;;;;;;;5114722;28;20442;-56
2022/03/16 11:26:00;;;;;;;15.53;10.53;;;;;;;;;;5115492;28;20407;-59
2022/03/16 11:28:46;;;;;;;14.60;10.20;;;;;;;;;;5102087;28;20440;-57
2022/03/16 11:31:14;;;;;;;14.43;10.37;;;;;;;;;;5114742;28;20405;-56
2022/03/16 11:33:50;;;;;;;11.27;10.00;;;;;;;;;;5115287;28;20409;-57
2022/03/16 11:36:32;;;;;;;12.67;10.77;;;;;;;;;;5114770;28;20495;-55
2022/03/16 11:39:02;;;;;;;18.10;11.13;;;;;;;;;;5114706;28;20408;-57
2022/03/16 11:41:30;;;;;;;13.70;11.00;;;;;;;;;;5114412;28;20889;-55
2022/03/16 11:44:19;;;;;;;17.77;12.40;;;;;;;;;;5114615;28;20767;-57
2022/03/16 11:46:46;;;;;;;15.30;11.83;;;;;;;;;;5101537;28;21000;-61
2022/03/16 11:49:12;;;;;;;12.60;10.90;;;;;;;;;;5114244;28;20408;-56
2022/03/16 11:51:43;;;;;;;15.27;11.50;;;;;;;;;;5114678;28;20760;-56
2022/03/16 11:54:09;;;;;;;13.00;11.00;;;;;;;;;;5114630;28;20409;-57
2022/03/16 11:56:41;;;;;;;14.60;12.33;;;;;;;;;;5114314;28;20409;-59
2022/03/16 11:59:28;;;;;;;15.90;11.17;;;;;;;;;;5114474;28;20435;-57
2022/03/16 12:02:03;;;;;;;13.37;10.70;;;;;;;;;;5114216;28;20407;-61
2022/03/16 12:04:35;;;;;;;13.40;10.73;;;;;;;;;;5095914;28;20868;-58
2022/03/16 12:07:02;;;;;;;15.13;11.07;;;;;;;;;;5114292;28;20470;-58
2022/03/16 12:09:49;;;;;;;12.20;10.73;;;;;;;;;;5113929;28;20432;-59
2022/03/16 12:15:09;;;;;;;18.57;11.30;;;;;;;;;;5114084;28;20405;-61
2022/03/16 12:17:36;;;;;;;13.17;10.67;;;;;;;;;;5114013;28;20405;-62
2022/03/16 12:20:24;;;;;;;14.30;10.47;;;;;;;;;;5114005;28;20408;-63
2022/03/16 12:22:51;;;;;;;12.77;9.90;;;;;;;;;;5113915;28;20821;-63
2022/03/16 12:25:27;;;;;;;11.47;10.27;;;;;;;;;;5113765;28;20739;-62
2022/03/16 12:30:45;;;;;;;11.77;9.30;;;;;;;;;;5114011;28;20411;-60
2022/03/16 12:33:25;;;;;;;9.87;8.47;;;;;;;;;;5113449;28;20425;-57
2022/03/16 12:35:52;;;;;;;10.47;8.17;;;;;;;;;;5113619;28;20401;-64
2022/03/16 12:38:19;;;;;;;8.40;7.60;;;;;;;;;;5113572;28;20408;-62
2022/03/16 12:43:46;;;;;;;8.10;7.40;;;;;;;;;;5050762;28;20536;-62
2022/03/16 12:46:20;;;;;;;8.70;7.80;;;;;;;;;;5100269;28;20876;-62
2022/03/16 12:48:51;;;;;;;10.77;8.30;;;;;;;;;;5095300;28;20478;-62
2022/03/16 12:51:32;;;;;;;11.90;8.30;;;;;;;;;;5112658;28;20405;-63
2022/03/16 12:54:01;;;;;;;8.70;7.73;;;;;;;;;;5113187;28;20405;-63
2022/03/16 12:56:27;;;;;;;8.90;7.60;;;;;;;;;;5113090;28;20431;-64
2022/03/16 12:58:55;;;;;;;9.30;8.30;;;;;;;;;;5113211;28;20409;-59
2022/03/16 13:01:22;;;;;;;15.67;11.60;;;;;;;;;;5113014;28;20427;-61
2022/03/16 13:03:51;;;;;;;10.80;9.33;;;;;;;;;;5113221;28;20411;-61
2022/03/16 13:06:18;;;;;;;10.10;8.13;;;;;;;;;;5113052;28;20456;-63
2022/03/16 13:08:50;;;;;;;14.67;9.10;;;;;;;;;;5113236;28;20424;-68
2022/03/16 13:11:24;;;;;;;8.90;8.10;;;;;;;;;;5112760;28;20453;-59
2022/03/16 13:14:13;;;;;;;9.67;8.67;;;;;;;;;;5112859;28;20520;-62
2022/03/16 13:16:56;;;;;;;13.67;10.50;;;;;;;;;;5113022;28;20401;-57
2022/03/16 13:19:26;;;;;;;9.90;8.90;;;;;;;;;;5112379;28;21004;-62
2022/03/16 13:22:02;;;;;;;12.83;9.50;;;;;;;;;;5112931;28;20415;-64
2022/03/16 13:24:29;;;;;;;10.80;9.37;;;;;;;;;;5112113;28;20413;-62
2022/03/16 13:26:55;;;;;;;11.47;9.50;;;;;;;;;;5112800;28;20817;-61
2022/03/16 13:29:21;;;;;;;10.73;9.20;;;;;;;;;;5112618;28;20407;-62
2022/03/16 13:31:47;;;;;;;10.43;9.40;;;;;;;;;;5112475;28;20171;-62
2022/03/16 13:34:14;;;;;;;13.70;9.37;;;;;;;;;;5112475;28;20429;-62
2022/03/16 13:36:45;;;;;;;11.30;9.90;;;;;;;;;;5112752;28;20415;-63
2022/03/16 13:39:16;;;;;;;12.07;9.77;;;;;;;;;;5112670;28;20405;-57
2022/03/16 13:42:05;;;;;;;10.83;9.70;;;;;;;;;;5112481;28;20408;-56
2022/03/16 13:44:37;;;;;;;11.20;9.53;;;;;;;;;;5112246;28;21354;-57
2022/03/16 13:47:07;;;;;;;10.57;8.90;;;;;;;;;;5112205;28;20456;-57
2022/03/16 13:49:37;;;;;;;10.80;9.70;;;;;;;;;;5112084;28;20409;-56
2022/03/16 13:52:07;;;;;;;9.13;8.20;;;;;;;;;;5112403;28;20491;-55
2022/03/16 13:54:35;;;;;;;11.30;8.67;;;;;;;;;;5094020;28;20920;-57
2022/03/16 13:57:11;;;;;;;10.77;9.33;;;;;;;;;;5112028;28;20925;-63
2022/03/16 13:59:38;;;;;;;9.20;8.30;;;;;;;;;;5093832;28;20769;-63
2022/03/16 14:02:11;;;;;;;9.50;8.13;;;;;;;;;;5112613;28;20430;-64
2022/03/16 14:04:38;;;;;;;12.17;8.80;;;;;;;;;;5111339;28;20408;-63
2022/03/16 14:07:17;;;;;;;9.80;8.80;;;;;;;;;;5112065;28;20563;-58
2022/03/16 14:09:45;;;;;;;9.70;8.60;;;;;;;;;;5112090;28;20416;-59
2022/03/16 14:12:14;;;;;;;12.33;9.50;;;;;;;;;;5112208;28;20492;-56
2022/03/16 14:14:43;;;;;;;10.90;9.70;;;;;;;;;;5112211;28;20490;-62
2022/03/16 14:17:10;;;;;;;10.83;9.00;;;;;;;;;;5093780;28;20405;-62
2022/03/16 14:19:37;;;;;;;12.20;9.80;;;;;;;;;;5111516;28;20452;-54
2022/03/16 14:22:03;;;;;;;11.93;10.00;;;;;;;;;;5112000;28;20401;-58
2022/03/16 14:24:29;;;;;;;10.83;9.30;;;;;;;;;;5111865;28;20446;-62
2022/03/16 14:26:55;;;;;;;14.10;10.23;;;;;;;;;;5111893;28;20465;-55
2022/03/16 14:29:22;;;;;;;11.27;10.07;;;;;;;;;;5111717;28;20397;-58
2022/03/16 14:31:51;;;;;;;12.07;10.77;;;;;;;;;;5111740;28;20409;-57
2022/03/16 14:34:18;;;;;;;12.73;11.33;;;;;;;;;;5111774;28;20412;-65
2022/03/16 14:36:44;;;;;;;12.93;11.43;;;;;;;;;;5111774;28;20929;-62
2022/03/16 14:39:10;;;;;;;11.40;10.20;;;;;;;;;;5111919;28;20404;-66
2022/03/16 14:41:36;;;;;;;15.20;11.90;;;;;;;;;;5093436;28;20834;-59
2022/03/16 14:44:02;;;;;;;11.77;10.57;;;;;;;;;;5093279;28;20496;-60
2022/03/16 14:46:28;;;;;;;11.30;10.10;;;;;;;;;;5111801;28;20440;-57